Time;durP1;ratioP1;P1;durP2;ratioP2;P2;SDS_P1;SDS_P2;PMS_P1;PMS_P2;Temp;Humidity;BMP_temperature;BMP_pressure;BME280_temperature;BME280_humidity;BME280_pressure;Samples;Min_cycle;Max_cycle;Signal;HPM_P1;HPM_P2
2023/08/16 00:02:15;;;;;;;14.65;10.75;;;;;;;;;;4977292;28;20034;-62
2023/08/16 00:04:41;;;;;;;10.63;8.00;;;;;;;;;;4975764;28;20118;-62
2023/08/16 00:07:07;;;;;;;16.13;10.13;;;;;;;;;;4977999;28;20239;-69
2023/08/16 00:09:33;;;;;;;12.70;10.60;;;;;;;;;;4979898;28;20122;-62
2023/08/16 00:11:59;;;;;;;13.73;9.90;;;;;;;;;;4980981;28;20038;-62
2023/08/16 00:14:24;;;;;;;13.98;10.40;;;;;;;;;;4976143;28;20038;-62
2023/08/16 00:16:49;;;;;;;13.55;7.35;;;;;;;;;;4978780;28;20022;-63
2023/08/16 00:19:15;;;;;;;14.25;10.65;;;;;;;;;;4965651;28;20031;-62
2023/08/16 00:21:41;;;;;;;13.02;10.55;;;;;;;;;;4967315;28;20106;-64
2023/08/16 00:24:07;;;;;;;14.65;11.82;;;;;;;;;;4966770;28;20039;-62
2023/08/16 00:26:32;;;;;;;15.75;11.95;;;;;;;;;;4968365;28;20074;-63
2023/08/16 00:28:57;;;;;;;23.17;15.98;;;;;;;;;;4966072;28;20051;-65
2023/08/16 00:31:23;;;;;;;22.35;14.77;;;;;;;;;;4966550;28;20510;-62
2023/08/16 00:33:49;;;;;;;26.23;17.40;;;;;;;;;;4969184;28;20023;-62
2023/08/16 00:36:14;;;;;;;32.85;20.17;;;;;;;;;;4967472;28;20472;-62
2023/08/16 00:38:42;;;;;;;31.20;20.80;;;;;;;;;;4971686;28;20034;-63
2023/08/16 00:41:14;;;;;;;33.22;22.27;;;;;;;;;;4976632;28;20022;-63
2023/08/16 00:43:40;;;;;;;30.35;19.10;;;;;;;;;;4981851;28;20032;-61
2023/08/16 00:46:11;;;;;;;30.35;18.67;;;;;;;;;;4995081;28;20525;-62
2023/08/16 00:48:38;;;;;;;22.55;16.02;;;;;;;;;;4995507;28;20089;-61
2023/08/16 00:51:05;;;;;;;23.02;16.05;;;;;;;;;;4995791;28;20030;-61
2023/08/16 00:53:32;;;;;;;26.83;17.08;;;;;;;;;;4995782;28;20026;-62
2023/08/16 00:55:58;;;;;;;25.45;17.08;;;;;;;;;;4995824;28;20026;-62
2023/08/16 00:58:25;;;;;;;25.20;18.13;;;;;;;;;;4995817;28;20137;-73
2023/08/16 01:00:50;;;;;;;20.45;15.30;;;;;;;;;;4995567;28;20049;-62
2023/08/16 01:03:16;;;;;;;21.55;12.80;;;;;;;;;;4995548;28;20026;-62
2023/08/16 01:05:41;;;;;;;16.20;11.65;;;;;;;;;;4995610;28;20109;-62
2023/08/16 01:08:07;;;;;;;17.65;12.75;;;;;;;;;;4995609;28;20027;-63
2023/08/16 01:10:44;;;;;;;23.90;15.15;;;;;;;;;;4995416;28;20070;-71
2023/08/16 01:13:20;;;;;;;24.95;18.13;;;;;;;;;;4995669;28;20105;-72
2023/08/16 01:15:48;;;;;;;25.95;18.08;;;;;;;;;;4995357;28;20042;-63
2023/08/16 01:18:15;;;;;;;26.58;16.63;;;;;;;;;;4995380;28;20471;-72
2023/08/16 01:20:41;;;;;;;26.50;16.00;;;;;;;;;;4995357;28;20040;-72
2023/08/16 01:23:12;;;;;;;20.52;12.82;;;;;;;;;;4995001;28;20046;-72
2023/08/16 01:25:55;;;;;;;16.27;11.63;;;;;;;;;;4981663;28;20481;-71
2023/08/16 01:28:21;;;;;;;17.60;12.02;;;;;;;;;;4974542;28;20027;-71
2023/08/16 01:30:48;;;;;;;18.33;10.68;;;;;;;;;;4975469;28;20078;-71
2023/08/16 01:33:13;;;;;;;15.35;12.63;;;;;;;;;;4975652;28;20468;-73
2023/08/16 01:35:40;;;;;;;19.48;10.73;;;;;;;;;;4975740;28;20045;-73
2023/08/16 01:38:08;;;;;;;19.38;12.93;;;;;;;;;;4975477;28;20029;-72
2023/08/16 01:40:54;;;;;;;20.52;13.20;;;;;;;;;;4975539;28;20078;-66
2023/08/16 01:43:20;;;;;;;15.90;13.68;;;;;;;;;;4970856;28;20048;-70
2023/08/16 01:45:49;;;;;;;22.33;13.77;;;;;;;;;;4994685;28;20026;-68
2023/08/16 01:48:15;;;;;;;15.95;10.32;;;;;;;;;;4994706;28;20121;-70
2023/08/16 01:50:41;;;;;;;19.23;11.90;;;;;;;;;;4994652;28;20034;-72
2023/08/16 01:53:07;;;;;;;14.57;10.63;;;;;;;;;;4994795;28;20458;-70
2023/08/16 01:55:32;;;;;;;17.80;13.13;;;;;;;;;;4994685;28;20499;-70
2023/08/16 01:57:57;;;;;;;17.42;12.45;;;;;;;;;;4994466;28;20018;-70
2023/08/16 02:00:23;;;;;;;13.82;10.63;;;;;;;;;;4994335;28;20018;-68
2023/08/16 02:02:48;;;;;;;16.67;12.48;;;;;;;;;;4994671;28;20387;-71
2023/08/16 02:05:14;;;;;;;14.48;8.35;;;;;;;;;;4994625;28;20444;-71
2023/08/16 02:07:39;;;;;;;12.25;8.85;;;;;;;;;;4994376;28;20027;-66
2023/08/16 02:10:05;;;;;;;15.98;10.57;;;;;;;;;;4994420;28;20023;-69
2023/08/16 02:12:31;;;;;;;13.90;10.73;;;;;;;;;;4994299;28;20038;-68
2023/08/16 02:14:56;;;;;;;11.93;9.43;;;;;;;;;;4994118;28;20093;-71
2023/08/16 02:17:21;;;;;;;16.35;12.07;;;;;;;;;;4994398;28;20034;-70
2023/08/16 02:19:47;;;;;;;14.10;9.60;;;;;;;;;;4994274;28;20049;-63
2023/08/16 02:22:12;;;;;;;15.07;11.23;;;;;;;;;;4994253;28;20384;-69
2023/08/16 02:24:38;;;;;;;15.68;9.43;;;;;;;;;;4988524;28;20133;-69
2023/08/16 02:27:03;;;;;;;14.35;8.82;;;;;;;;;;4974524;28;20027;-70
2023/08/16 02:29:29;;;;;;;13.32;8.07;;;;;;;;;;4974581;28;20100;-69
2023/08/16 02:31:54;;;;;;;12.93;9.63;;;;;;;;;;4974690;28;20030;-63
2023/08/16 02:34:20;;;;;;;17.38;10.07;;;;;;;;;;4974547;28;20019;-65
2023/08/16 02:36:45;;;;;;;16.17;9.52;;;;;;;;;;4974536;28;20078;-65
2023/08/16 02:39:10;;;;;;;14.25;9.93;;;;;;;;;;4974558;28;20401;-65
2023/08/16 02:41:36;;;;;;;17.55;10.57;;;;;;;;;;4974486;28;20510;-62
2023/08/16 02:44:01;;;;;;;14.77;9.93;;;;;;;;;;4982365;28;20026;-69
2023/08/16 02:46:27;;;;;;;16.23;10.50;;;;;;;;;;4993938;28;20375;-62
2023/08/16 02:48:52;;;;;;;17.83;11.77;;;;;;;;;;4993790;28;20544;-61
2023/08/16 02:51:17;;;;;;;16.33;9.95;;;;;;;;;;4993714;28;20049;-70
2023/08/16 02:53:43;;;;;;;17.80;11.98;;;;;;;;;;4993826;28;20109;-65
2023/08/16 02:56:08;;;;;;;13.23;10.07;;;;;;;;;;4993764;28;20026;-66
2023/08/16 02:58:34;;;;;;;21.75;12.95;;;;;;;;;;4993243;28;20026;-68
2023/08/16 03:00:59;;;;;;;17.27;11.80;;;;;;;;;;4993482;28;20026;-70
2023/08/16 03:03:24;;;;;;;14.60;9.90;;;;;;;;;;4993507;28;20038;-67
2023/08/16 03:05:50;;;;;;;19.25;11.20;;;;;;;;;;4993517;28;20030;-62
2023/08/16 03:08:16;;;;;;;20.13;11.48;;;;;;;;;;4993496;28;20084;-70
2023/08/16 03:10:41;;;;;;;17.45;10.75;;;;;;;;;;4992785;28;20080;-67
2023/08/16 03:13:07;;;;;;;17.48;9.98;;;;;;;;;;4993196;28;20150;-69
2023/08/16 03:15:33;;;;;;;14.93;9.60;;;;;;;;;;4993419;28;20388;-69
2023/08/16 03:17:58;;;;;;;14.07;8.63;;;;;;;;;;4993459;28;20482;-62
2023/08/16 03:20:24;;;;;;;14.15;8.88;;;;;;;;;;4993444;28;20105;-66
2023/08/16 03:22:49;;;;;;;11.77;8.00;;;;;;;;;;4993115;28;20022;-66
2023/08/16 03:25:16;;;;;;;12.95;8.63;;;;;;;;;;4983038;28;20102;-63
2023/08/16 03:27:41;;;;;;;16.33;8.32;;;;;;;;;;4973640;28;20043;-62
2023/08/16 03:30:07;;;;;;;18.17;9.55;;;;;;;;;;4973989;28;20033;-65
2023/08/16 03:32:33;;;;;;;15.55;9.35;;;;;;;;;;4973740;28;20039;-65
2023/08/16 03:34:58;;;;;;;16.20;9.75;;;;;;;;;;4974053;28;20027;-71
2023/08/16 03:37:23;;;;;;;15.40;7.20;;;;;;;;;;4973835;28;20369;-71
2023/08/16 03:39:51;;;;;;;15.43;8.90;;;;;;;;;;4973816;28;20073;-64
2023/08/16 03:42:16;;;;;;;17.33;8.57;;;;;;;;;;4973455;28;20027;-64
2023/08/16 03:44:42;;;;;;;11.20;6.95;;;;;;;;;;4987472;28;20042;-67
2023/08/16 03:47:07;;;;;;;9.65;6.45;;;;;;;;;;4993081;28;20053;-67
2023/08/16 03:49:33;;;;;;;12.05;6.82;;;;;;;;;;4992984;28;20054;-65
2023/08/16 03:51:58;;;;;;;10.77;6.68;;;;;;;;;;4993259;28;20435;-66
2023/08/16 03:54:24;;;;;;;13.52;7.03;;;;;;;;;;4992797;28;20027;-62
2023/08/16 03:56:49;;;;;;;15.05;7.70;;;;;;;;;;4991468;28;20109;-61
2023/08/16 03:59:14;;;;;;;15.25;8.98;;;;;;;;;;4993045;28;20202;-65
2023/08/16 04:01:40;;;;;;;15.38;9.13;;;;;;;;;;4992883;28;20026;-65
2023/08/16 04:04:05;;;;;;;14.30;9.15;;;;;;;;;;4992898;28;20475;-63
2023/08/16 04:06:31;;;;;;;11.60;6.93;;;;;;;;;;4992907;28;20033;-62
2023/08/16 04:08:56;;;;;;;11.48;7.18;;;;;;;;;;4992818;28;20033;-69
2023/08/16 04:11:22;;;;;;;8.65;6.75;;;;;;;;;;4992394;28;20037;-69
2023/08/16 04:13:47;;;;;;;13.27;6.53;;;;;;;;;;4992887;28;20030;-63
2023/08/16 04:16:12;;;;;;;11.30;6.78;;;;;;;;;;4992909;28;20085;-67
2023/08/16 04:18:38;;;;;;;13.85;6.38;;;;;;;;;;4992872;28;20053;-61
2023/08/16 04:21:03;;;;;;;8.90;5.93;;;;;;;;;;4993938;28;20089;-62
2023/08/16 04:23:29;;;;;;;11.52;6.70;;;;;;;;;;4996315;28;20042;-63
2023/08/16 04:25:54;;;;;;;13.13;9.45;;;;;;;;;;4980283;28;20109;-63
2023/08/16 04:28:20;;;;;;;14.48;8.73;;;;;;;;;;4976953;28;20391;-67
2023/08/16 04:30:45;;;;;;;18.30;8.90;;;;;;;;;;4976817;28;20038;-66
2023/08/16 04:33:10;;;;;;;16.20;8.55;;;;;;;;;;4976997;28;20027;-68
2023/08/16 04:35:36;;;;;;;9.18;6.25;;;;;;;;;;4976778;28;20459;-62
2023/08/16 04:38:01;;;;;;;11.20;5.38;;;;;;;;;;4976866;28;20038;-61
2023/08/16 04:40:27;;;;;;;9.13;4.93;;;;;;;;;;4976078;28;20023;-61
2023/08/16 04:42:52;;;;;;;9.00;4.75;;;;;;;;;;4976721;28;20491;-62
2023/08/16 04:45:18;;;;;;;10.45;4.65;;;;;;;;;;4995082;28;20464;-61
2023/08/16 04:47:43;;;;;;;7.90;3.75;;;;;;;;;;4996054;28;20033;-61
2023/08/16 04:50:09;;;;;;;10.10;4.80;;;;;;;;;;4995976;28;20066;-62
2023/08/16 04:52:36;;;;;;;7.32;4.47;;;;;;;;;;4995946;28;20061;-61
2023/08/16 04:55:01;;;;;;;7.32;3.95;;;;;;;;;;4995664;28;20038;-61
2023/08/16 04:57:27;;;;;;;8.82;4.90;;;;;;;;;;4995823;28;20395;-62
2023/08/16 04:59:52;;;;;;;6.35;3.55;;;;;;;;;;4995852;28;20029;-62
2023/08/16 05:02:18;;;;;;;9.88;4.30;;;;;;;;;;4995588;28;20030;-61
2023/08/16 05:04:43;;;;;;;7.57;4.38;;;;;;;;;;4995722;28;20084;-61
2023/08/16 05:07:09;;;;;;;8.00;3.75;;;;;;;;;;4995612;28;20115;-62
2023/08/16 05:09:35;;;;;;;10.38;3.90;;;;;;;;;;4995120;28;20057;-61
2023/08/16 05:12:02;;;;;;;8.30;3.70;;;;;;;;;;4995500;28;20035;-61
2023/08/16 05:14:27;;;;;;;11.35;3.60;;;;;;;;;;4995526;28;20033;-62
2023/08/16 05:16:53;;;;;;;8.68;3.25;;;;;;;;;;4995443;28;20055;-70
2023/08/16 05:19:18;;;;;;;12.70;3.05;;;;;;;;;;4995444;28;20105;-70
2023/08/16 05:21:44;;;;;;;7.95;3.10;;;;;;;;;;4995497;28;20472;-70
2023/08/16 05:24:09;;;;;;;8.68;3.40;;;;;;;;;;4993364;28;20050;-67
2023/08/16 05:26:35;;;;;;;11.43;3.92;;;;;;;;;;4975704;28;20035;-68
2023/08/16 05:29:00;;;;;;;7.90;3.88;;;;;;;;;;4975631;28;20026;-68
2023/08/16 05:31:26;;;;;;;10.88;3.10;;;;;;;;;;4975757;28;20468;-65
2023/08/16 05:33:51;;;;;;;12.35;2.83;;;;;;;;;;4975084;28;20034;-65
2023/08/16 05:36:17;;;;;;;8.57;2.97;;;;;;;;;;4974349;28;20495;-65
2023/08/16 05:38:42;;;;;;;8.32;2.40;;;;;;;;;;4975493;28;20042;-65
2023/08/16 05:41:08;;;;;;;6.78;2.33;;;;;;;;;;4975659;28;20027;-64
2023/08/16 05:43:33;;;;;;;7.85;2.17;;;;;;;;;;4979884;28;20419;-68
2023/08/16 05:45:59;;;;;;;6.13;2.67;;;;;;;;;;4994769;28;20503;-63
2023/08/16 05:48:24;;;;;;;12.75;2.63;;;;;;;;;;4994966;28;20034;-70
2023/08/16 05:50:50;;;;;;;8.10;2.58;;;;;;;;;;4994665;28;20420;-65
2023/08/16 05:53:15;;;;;;;6.68;2.22;;;;;;;;;;4993201;28;20528;-71
2023/08/16 05:55:41;;;;;;;4.97;2.28;;;;;;;;;;4975179;28;20039;-68
2023/08/16 05:58:06;;;;;;;8.68;2.45;;;;;;;;;;4975399;28;20388;-63
2023/08/16 06:00:32;;;;;;;5.47;2.15;;;;;;;;;;4975392;28;20468;-71
2023/08/16 06:02:58;;;;;;;9.20;2.47;;;;;;;;;;4975129;28;20037;-65
2023/08/16 06:05:23;;;;;;;8.30;3.13;;;;;;;;;;4975155;28;20042;-64
2023/08/16 06:07:49;;;;;;;11.38;2.95;;;;;;;;;;4974948;28;20030;-72
2023/08/16 06:10:14;;;;;;;8.90;2.67;;;;;;;;;;4974873;28;20031;-71
2023/08/16 06:12:40;;;;;;;5.85;2.25;;;;;;;;;;4973663;28;20118;-64
2023/08/16 06:15:11;;;;;;;7.65;2.45;;;;;;;;;;4974991;28;20066;-68
2023/08/16 06:17:37;;;;;;;5.85;2.20;;;;;;;;;;4975016;28;20023;-67
2023/08/16 06:20:03;;;;;;;7.70;2.00;;;;;;;;;;4969398;28;20395;-64
2023/08/16 06:22:29;;;;;;;8.00;2.15;;;;;;;;;;4978831;28;20061;-66
2023/08/16 06:24:54;;;;;;;3.33;1.98;;;;;;;;;;4976627;28;20348;-62
2023/08/16 06:27:20;;;;;;;8.80;1.98;;;;;;;;;;4978537;28;20030;-61
2023/08/16 06:29:45;;;;;;;6.20;2.15;;;;;;;;;;4979121;28;20100;-65
2023/08/16 06:32:11;;;;;;;7.32;1.70;;;;;;;;;;4978807;28;20391;-66
2023/08/16 06:34:38;;;;;;;8.82;2.33;;;;;;;;;;4985251;28;20074;-62
2023/08/16 06:37:04;;;;;;;6.53;2.45;;;;;;;;;;4985708;28;20022;-63
2023/08/16 06:39:29;;;;;;;5.32;1.90;;;;;;;;;;4993041;28;20037;-62
2023/08/16 06:41:55;;;;;;;5.78;2.20;;;;;;;;;;4977299;28;20026;-68
2023/08/16 06:44:20;;;;;;;5.10;2.25;;;;;;;;;;4987883;28;20035;-63
2023/08/16 06:46:46;;;;;;;6.90;2.20;;;;;;;;;;4983754;28;20027;-64
2023/08/16 06:49:12;;;;;;;8.75;2.92;;;;;;;;;;4986865;28;20049;-63
2023/08/16 06:51:37;;;;;;;10.05;2.83;;;;;;;;;;4976655;28;20039;-65
2023/08/16 06:54:03;;;;;;;6.53;3.60;;;;;;;;;;4993479;28;20411;-63
2023/08/16 06:56:29;;;;;;;10.55;3.70;;;;;;;;;;4973755;28;20028;-63
2023/08/16 06:58:55;;;;;;;4.95;2.78;;;;;;;;;;4961096;28;20035;-64
2023/08/16 07:01:20;;;;;;;6.53;4.00;;;;;;;;;;4969760;28;20027;-63
2023/08/16 07:03:48;;;;;;;9.63;4.25;;;;;;;;;;4972986;28;20046;-67
2023/08/16 07:06:14;;;;;;;7.57;4.43;;;;;;;;;;4954598;29;20168;-63
2023/08/16 07:08:40;;;;;;;9.45;4.80;;;;;;;;;;4954723;29;20476;-62
2023/08/16 07:11:06;;;;;;;9.82;4.18;;;;;;;;;;4954526;29;20122;-61
2023/08/16 07:13:31;;;;;;;9.05;4.10;;;;;;;;;;4964471;28;20062;-61
2023/08/16 07:15:56;;;;;;;6.68;3.25;;;;;;;;;;4989119;28;20034;-61
2023/08/16 07:18:23;;;;;;;9.38;4.40;;;;;;;;;;4991628;28;20140;-61
2023/08/16 07:20:49;;;;;;;11.77;4.55;;;;;;;;;;4993012;28;20031;-63
2023/08/16 07:23:14;;;;;;;9.48;4.38;;;;;;;;;;4982510;28;20098;-61
2023/08/16 07:25:40;;;;;;;9.38;4.40;;;;;;;;;;4973234;28;20093;-62
2023/08/16 07:28:06;;;;;;;9.38;4.45;;;;;;;;;;4973400;28;20118;-61
2023/08/16 07:30:32;;;;;;;7.15;3.70;;;;;;;;;;4976274;28;20030;-61
2023/08/16 07:32:57;;;;;;;9.65;3.40;;;;;;;;;;4973418;28;20034;-61
2023/08/16 07:35:23;;;;;;;8.20;3.92;;;;;;;;;;4977998;28;20076;-61
2023/08/16 07:37:48;;;;;;;6.80;3.63;;;;;;;;;;4992733;28;20544;-61
2023/08/16 07:40:14;;;;;;;5.85;3.22;;;;;;;;;;4992885;28;20065;-62
2023/08/16 07:42:40;;;;;;;8.82;3.90;;;;;;;;;;4992666;28;20057;-61
2023/08/16 07:45:06;;;;;;;10.05;3.78;;;;;;;;;;4992536;28;20424;-61
2023/08/16 07:47:32;;;;;;;7.35;3.10;;;;;;;;;;4992025;28;20042;-63
2023/08/16 07:49:58;;;;;;;6.57;2.80;;;;;;;;;;4992641;28;20026;-62
2023/08/16 07:52:23;;;;;;;7.25;2.78;;;;;;;;;;4992678;28;20035;-61
2023/08/16 07:54:49;;;;;;;8.10;2.92;;;;;;;;;;4992714;28;20029;-61
2023/08/16 07:57:14;;;;;;;6.90;3.00;;;;;;;;;;4996016;28;20026;-61
2023/08/16 07:59:40;;;;;;;8.23;2.50;;;;;;;;;;4996453;28;20026;-61
2023/08/16 08:02:06;;;;;;;5.32;2.22;;;;;;;;;;4994809;28;20030;-61
2023/08/16 08:04:35;;;;;;;6.70;2.28;;;;;;;;;;4987451;28;20019;-64
2023/08/16 08:07:01;;;;;;;4.07;1.67;;;;;;;;;;4976828;28;20035;-64
2023/08/16 08:09:27;;;;;;;5.28;1.92;;;;;;;;;;4976902;28;20034;-61
2023/08/16 08:11:52;;;;;;;5.03;1.80;;;;;;;;;;4976854;28;20027;-61
2023/08/16 08:14:18;;;;;;;3.05;1.27;;;;;;;;;;4978356;28;20038;-61
2023/08/16 08:16:44;;;;;;;2.95;1.33;;;;;;;;;;4996148;28;20383;-61
2023/08/16 08:19:09;;;;;;;4.70;1.55;;;;;;;;;;4996311;28;20023;-62
2023/08/16 08:21:34;;;;;;;4.40;1.27;;;;;;;;;;4996083;28;20034;-61
2023/08/16 08:24:00;;;;;;;2.63;1.23;;;;;;;;;;4979656;28;20054;-63
2023/08/16 08:26:29;;;;;;;3.75;1.48;;;;;;;;;;4976677;28;20023;-61
2023/08/16 08:28:54;;;;;;;4.85;1.40;;;;;;;;;;4976487;28;20027;-61
2023/08/16 08:31:21;;;;;;;3.55;1.42;;;;;;;;;;4995575;28;20046;-63
2023/08/16 08:33:46;;;;;;;2.85;1.38;;;;;;;;;;4995843;28;20360;-62
2023/08/16 08:36:12;;;;;;;3.95;1.30;;;;;;;;;;4996012;28;20033;-64
2023/08/16 08:38:41;;;;;;;3.83;1.20;;;;;;;;;;4996003;28;20495;-61
2023/08/16 08:41:08;;;;;;;3.05;1.13;;;;;;;;;;4995871;28;20430;-64
2023/08/16 08:43:37;;;;;;;5.07;1.42;;;;;;;;;;4995776;28;20030;-61
2023/08/16 08:46:04;;;;;;;4.18;1.45;;;;;;;;;;4995627;28;20332;-61
2023/08/16 08:48:30;;;;;;;6.97;1.73;;;;;;;;;;4995759;28;20026;-62
2023/08/16 08:50:57;;;;;;;6.35;1.33;;;;;;;;;;4995413;28;20030;-62
2023/08/16 08:53:24;;;;;;;5.70;1.33;;;;;;;;;;4995614;28;20031;-61
2023/08/16 08:55:55;;;;;;;3.30;1.55;;;;;;;;;;4995389;28;20105;-62
2023/08/16 08:58:21;;;;;;;4.50;1.65;;;;;;;;;;4995576;28;20027;-61
2023/08/16 09:00:48;;;;;;;3.33;1.20;;;;;;;;;;4995173;28;20038;-64
2023/08/16 09:03:17;;;;;;;2.53;1.33;;;;;;;;;;4995395;28;20030;-61
2023/08/16 09:05:47;;;;;;;4.15;1.50;;;;;;;;;;4976867;28;20038;-61
2023/08/16 09:08:15;;;;;;;3.80;1.30;;;;;;;;;;4974772;28;20035;-73
2023/08/16 09:10:42;;;;;;;5.23;1.67;;;;;;;;;;4975784;28;20396;-71
2023/08/16 09:13:11;;;;;;;5.28;1.77;;;;;;;;;;4975760;28;20280;-73
2023/08/16 09:15:37;;;;;;;3.92;1.30;;;;;;;;;;4987462;28;20120;-73
2023/08/16 09:18:10;;;;;;;3.60;1.20;;;;;;;;;;4995171;28;20030;-69
2023/08/16 09:20:36;;;;;;;3.50;1.33;;;;;;;;;;4995076;28;20033;-72
2023/08/16 09:23:02;;;;;;;3.58;1.60;;;;;;;;;;4986643;28;20046;-72
2023/08/16 09:25:31;;;;;;;2.80;1.20;;;;;;;;;;4975080;28;20042;-68
2023/08/16 09:27:57;;;;;;;3.33;1.30;;;;;;;;;;4975497;28;20464;-72
2023/08/16 09:30:28;;;;;;;5.80;1.40;;;;;;;;;;4986656;28;20036;-73
2023/08/16 09:32:56;;;;;;;4.63;1.35;;;;;;;;;;4994771;28;20070;-72
2023/08/16 09:35:32;;;;;;;3.85;1.30;;;;;;;;;;4994785;28;20554;-72
2023/08/16 09:37:59;;;;;;;4.18;1.38;;;;;;;;;;4988361;28;20027;-73
2023/08/16 09:40:25;;;;;;;4.32;1.48;;;;;;;;;;4975210;28;20030;-73
2023/08/16 09:42:51;;;;;;;4.63;1.13;;;;;;;;;;4975301;28;20058;-74
2023/08/16 09:45:26;;;;;;;2.40;1.30;;;;;;;;;;4975113;28;20034;-71
2023/08/16 09:47:51;;;;;;;2.72;1.30;;;;;;;;;;4975148;28;20118;-73
2023/08/16 09:50:21;;;;;;;3.05;1.25;;;;;;;;;;4974658;28;20114;-75
2023/08/16 09:52:51;;;;;;;3.72;1.25;;;;;;;;;;4973787;28;20041;-73
2023/08/16 09:55:26;;;;;;;2.22;1.27;;;;;;;;;;4973958;28;20037;-74
2023/08/16 09:57:52;;;;;;;5.65;1.60;;;;;;;;;;4974865;28;20022;-74
2023/08/16 10:00:18;;;;;;;5.47;1.58;;;;;;;;;;4974858;28;20106;-74
2023/08/16 10:02:46;;;;;;;4.22;1.50;;;;;;;;;;4974714;28;20026;-70
2023/08/16 10:05:13;;;;;;;3.80;1.73;;;;;;;;;;4960805;28;20122;-70
2023/08/16 10:07:40;;;;;;;3.28;1.50;;;;;;;;;;4955183;28;20031;-70
2023/08/16 10:10:09;;;;;;;5.20;1.60;;;;;;;;;;4955352;29;20027;-74
2023/08/16 10:12:36;;;;;;;4.95;1.80;;;;;;;;;;4955218;29;20110;-74
2023/08/16 10:15:02;;;;;;;4.55;2.53;;;;;;;;;;4969994;28;20156;-74
2023/08/16 10:17:28;;;;;;;8.10;4.22;;;;;;;;;;4993994;28;20527;-75
2023/08/16 10:20:00;;;;;;;7.97;4.07;;;;;;;;;;4993735;28;20097;-75
2023/08/16 10:22:35;;;;;;;8.60;3.92;;;;;;;;;;4990763;28;20030;-69
2023/08/16 10:25:15;;;;;;;5.55;2.78;;;;;;;;;;4955127;28;20035;-75
2023/08/16 10:27:44;;;;;;;13.77;3.35;;;;;;;;;;4954829;28;20023;-62
2023/08/16 10:30:15;;;;;;;5.88;2.70;;;;;;;;;;4966941;28;20077;-74
2023/08/16 10:32:44;;;;;;;12.00;3.33;;;;;;;;;;4974160;28;20543;-70
2023/08/16 10:35:10;;;;;;;5.70;2.70;;;;;;;;;;4974426;28;20027;-71
2023/08/16 10:37:37;;;;;;;7.90;2.50;;;;;;;;;;4974319;28;20039;-62
2023/08/16 10:40:03;;;;;;;5.35;2.65;;;;;;;;;;4974246;28;20054;-62
2023/08/16 10:42:29;;;;;;;4.80;2.25;;;;;;;;;;4974212;28;20034;-62
2023/08/16 10:44:55;;;;;;;6.90;2.53;;;;;;;;;;4974306;28;20030;-62
2023/08/16 10:47:27;;;;;;;7.10;2.78;;;;;;;;;;4974176;28;20085;-62
2023/08/16 10:49:53;;;;;;;7.63;3.15;;;;;;;;;;4973974;28;20019;-62
2023/08/16 10:52:29;;;;;;;7.68;3.15;;;;;;;;;;4974124;28;20034;-62
2023/08/16 10:54:54;;;;;;;7.85;3.30;;;;;;;;;;4973928;28;20027;-63
2023/08/16 10:57:26;;;;;;;5.70;2.85;;;;;;;;;;4973917;28;20026;-63
2023/08/16 11:00:03;;;;;;;6.88;3.88;;;;;;;;;;4973931;28;20023;-62
2023/08/16 11:02:33;;;;;;;12.43;5.90;;;;;;;;;;4974113;28;20034;-63
2023/08/16 11:05:02;;;;;;;9.88;4.82;;;;;;;;;;4961538;28;20071;-66
2023/08/16 11:07:30;;;;;;;10.05;7.15;;;;;;;;;;4953138;28;20051;-62
2023/08/16 11:10:02;;;;;;;6.72;4.10;;;;;;;;;;4954461;28;20032;-63
2023/08/16 11:12:31;;;;;;;10.23;6.53;;;;;;;;;;4954197;29;20031;-62
2023/08/16 11:15:00;;;;;;;10.35;6.65;;;;;;;;;;4967603;28;20037;-62
2023/08/16 11:17:27;;;;;;;9.80;5.53;;;;;;;;;;4993203;28;20061;-64
2023/08/16 11:19:56;;;;;;;7.75;5.90;;;;;;;;;;4993164;28;20045;-63
2023/08/16 11:22:22;;;;;;;9.38;4.85;;;;;;;;;;4990513;28;20384;-62
2023/08/16 11:24:49;;;;;;;7.10;5.07;;;;;;;;;;4972593;28;20047;-64
2023/08/16 11:27:33;;;;;;;10.40;4.43;;;;;;;;;;4973611;28;20090;-64
2023/08/16 11:30:00;;;;;;;10.20;5.57;;;;;;;;;;4981800;28;20023;-63
2023/08/16 11:32:35;;;;;;;7.57;3.30;;;;;;;;;;4996573;28;20034;-62
2023/08/16 11:35:02;;;;;;;5.88;3.53;;;;;;;;;;4997138;28;20417;-62
2023/08/16 11:37:27;;;;;;;4.88;3.50;;;;;;;;;;4996900;28;20026;-62
2023/08/16 11:40:10;;;;;;;5.00;2.88;;;;;;;;;;4996796;28;20030;-63
2023/08/16 11:42:36;;;;;;;5.93;2.65;;;;;;;;;;4997039;28;20117;-62
2023/08/16 11:45:03;;;;;;;4.10;2.08;;;;;;;;;;4996721;28;20439;-63
2023/08/16 11:47:29;;;;;;;4.50;2.00;;;;;;;;;;4996800;28;20112;-63
2023/08/16 11:49:55;;;;;;;5.15;2.00;;;;;;;;;;4996919;28;20050;-62
2023/08/16 11:52:24;;;;;;;4.85;1.67;;;;;;;;;;4996725;28;20475;-64
2023/08/16 11:55:13;;;;;;;4.47;1.75;;;;;;;;;;4996311;28;20105;-65
2023/08/16 11:57:47;;;;;;;5.88;1.95;;;;;;;;;;4996645;28;20046;-64
2023/08/16 12:00:15;;;;;;;3.78;1.40;;;;;;;;;;4996730;28;20123;-62
2023/08/16 12:02:43;;;;;;;4.10;1.80;;;;;;;;;;4996717;28;20125;-63
2023/08/16 12:05:10;;;;;;;4.53;1.55;;;;;;;;;;4982807;28;20027;-62
2023/08/16 12:07:48;;;;;;;3.78;1.60;;;;;;;;;;4976724;28;20023;-62
2023/08/16 12:10:23;;;;;;;6.25;1.40;;;;;;;;;;4976849;28;20106;-68
2023/08/16 12:12:52;;;;;;;5.18;1.60;;;;;;;;;;4976871;28;20023;-63
2023/08/16 12:15:25;;;;;;;3.67;1.50;;;;;;;;;;4986211;28;20510;-62
2023/08/16 12:17:55;;;;;;;3.63;1.60;;;;;;;;;;4996289;28;20364;-62
2023/08/16 12:20:29;;;;;;;4.18;1.83;;;;;;;;;;4996179;28;20058;-62
2023/08/16 12:22:55;;;;;;;5.75;2.90;;;;;;;;;;4988712;28;20106;-69
2023/08/16 12:25:20;;;;;;;10.18;1.88;;;;;;;;;;4976465;28;20027;-64
2023/08/16 12:27:46;;;;;;;4.60;1.60;;;;;;;;;;4976540;28;20033;-64
2023/08/16 12:30:12;;;;;;;3.45;1.67;;;;;;;;;;4986618;28;20023;-67
2023/08/16 12:32:37;;;;;;;4.53;1.90;;;;;;;;;;4995948;28;20026;-63
2023/08/16 12:35:03;;;;;;;2.60;1.40;;;;;;;;;;4988432;28;20164;-68
2023/08/16 12:37:28;;;;;;;4.70;1.67;;;;;;;;;;4974416;28;20024;-66
2023/08/16 12:39:54;;;;;;;3.70;1.90;;;;;;;;;;4966321;28;20022;-63
2023/08/16 12:42:19;;;;;;;5.40;1.60;;;;;;;;;;4968910;28;20031;-69
2023/08/16 12:44:45;;;;;;;4.97;1.65;;;;;;;;;;4976324;28;20440;-63
2023/08/16 12:47:10;;;;;;;5.18;1.95;;;;;;;;;;4976307;28;20038;-62
2023/08/16 12:49:36;;;;;;;5.40;1.90;;;;;;;;;;4976119;28;20027;-68
2023/08/16 12:52:01;;;;;;;5.65;1.70;;;;;;;;;;4975975;28;20403;-68
2023/08/16 12:54:27;;;;;;;3.92;1.80;;;;;;;;;;4976120;28;20038;-64
2023/08/16 12:56:52;;;;;;;4.25;1.70;;;;;;;;;;4976196;28;20038;-62
2023/08/16 12:59:18;;;;;;;4.47;2.30;;;;;;;;;;4976030;28;20384;-66
2023/08/16 13:01:46;;;;;;;4.05;1.90;;;;;;;;;;4975918;28;20030;-63
2023/08/16 13:04:11;;;;;;;4.13;1.92;;;;;;;;;;4975818;28;20030;-66
2023/08/16 13:06:37;;;;;;;5.07;2.00;;;;;;;;;;4975872;28;20018;-65
2023/08/16 13:09:02;;;;;;;11.88;2.33;;;;;;;;;;4975930;28;20041;-72
2023/08/16 13:11:28;;;;;;;4.10;1.80;;;;;;;;;;4975795;28;20178;-64
2023/08/16 13:13:53;;;;;;;3.70;1.90;;;;;;;;;;4975765;28;20564;-68
2023/08/16 13:16:19;;;;;;;4.13;1.88;;;;;;;;;;4993310;28;20030;-62
2023/08/16 13:18:44;;;;;;;3.38;1.80;;;;;;;;;;4995278;28;20026;-65
2023/08/16 13:21:10;;;;;;;5.28;1.65;;;;;;;;;;4995030;28;20026;-62
2023/08/16 13:23:35;;;;;;;6.90;2.17;;;;;;;;;;4982163;28;20131;-63
2023/08/16 13:26:01;;;;;;;4.03;1.83;;;;;;;;;;4975340;28;20407;-61
2023/08/16 13:28:26;;;;;;;4.32;1.80;;;;;;;;;;4975532;28;20106;-63
2023/08/16 13:30:52;;;;;;;5.72;2.03;;;;;;;;;;4990949;28;20026;-62
2023/08/16 13:33:18;;;;;;;4.72;1.63;;;;;;;;;;4994900;28;20026;-65
2023/08/16 13:35:45;;;;;;;3.22;1.50;;;;;;;;;;4994284;28;20041;-64
2023/08/16 13:38:11;;;;;;;3.03;1.60;;;;;;;;;;4977440;28;20030;-63
2023/08/16 13:40:38;;;;;;;4.20;1.60;;;;;;;;;;4994639;28;20045;-63
2023/08/16 13:43:04;;;;;;;5.95;1.90;;;;;;;;;;4994744;28;20041;-62
2023/08/16 13:45:29;;;;;;;5.10;1.70;;;;;;;;;;4976252;28;20022;-62
2023/08/16 13:47:56;;;;;;;7.60;1.70;;;;;;;;;;4975120;28;20503;-62
2023/08/16 13:50:21;;;;;;;5.88;1.65;;;;;;;;;;4974864;28;20039;-69
2023/08/16 13:52:46;;;;;;;3.95;1.65;;;;;;;;;;4974700;28;20031;-72
2023/08/16 13:55:14;;;;;;;2.55;1.25;;;;;;;;;;4974481;28;20031;-65
2023/08/16 13:57:39;;;;;;;3.35;1.50;;;;;;;;;;4974938;28;20110;-72
2023/08/16 14:00:07;;;;;;;4.18;1.60;;;;;;;;;;4974950;28;20054;-71
2023/08/16 14:02:33;;;;;;;4.25;1.67;;;;;;;;;;4974701;28;20028;-72
2023/08/16 14:04:59;;;;;;;4.63;1.50;;;;;;;;;;4962604;28;20049;-72
2023/08/16 14:07:24;;;;;;;5.53;1.80;;;;;;;;;;4955509;29;20042;-70
2023/08/16 14:09:52;;;;;;;6.75;1.80;;;;;;;;;;4955265;29;20039;-71
2023/08/16 14:12:18;;;;;;;3.78;1.58;;;;;;;;;;4955290;29;20031;-72
2023/08/16 14:14:43;;;;;;;4.60;1.52;;;;;;;;;;4964930;28;20019;-68
2023/08/16 14:17:08;;;;;;;3.42;1.50;;;;;;;;;;4994041;28;20379;-68
2023/08/16 14:19:34;;;;;;;3.50;1.48;;;;;;;;;;4993707;28;20027;-66
2023/08/16 14:21:59;;;;;;;3.70;1.60;;;;;;;;;;4994032;28;20471;-71
2023/08/16 14:24:25;;;;;;;3.80;1.63;;;;;;;;;;4974308;28;20050;-70
2023/08/16 14:26:51;;;;;;;3.78;1.58;;;;;;;;;;4974391;28;20046;-71
2023/08/16 14:29:16;;;;;;;5.20;2.03;;;;;;;;;;4976829;28;20041;-69
2023/08/16 14:31:42;;;;;;;5.65;2.08;;;;;;;;;;4993647;28;20034;-69
2023/08/16 14:34:07;;;;;;;3.83;1.80;;;;;;;;;;4993543;28;20026;-67